Time;durP1;ratioP1;P1;durP2;ratioP2;P2;SDS_P1;SDS_P2;PMS_P1;PMS_P2;Temp;Humidity;BMP_temperature;BMP_pressure;BME280_temperature;BME280_humidity;BME280_pressure;Samples;Min_cycle;Max_cycle;Signal;HPM_P1;HPM_P2
2022/12/19 00:01:51;;;;;;;;;;;;;;;;;;5037555;28;7065;-77
2022/12/19 00:04:18;;;;;;;;;;;;;;;;;;5036553;28;7189;-77
2022/12/19 00:06:55;;;;;;;;;;;;;;;;;;5036548;28;7038;-77
2022/12/19 00:09:20;;;;;;;;;;;;;;;;;;5036462;28;7140;-77
2022/12/19 00:11:47;;;;;;;;;;;;;;;;;;5036492;28;7173;-77
2022/12/19 00:17:16;;;;;;;;;;;;;;;;;;5036155;28;6992;-77
2022/12/19 00:19:48;;;;;;;;;;;;;;;;;;5036387;28;7001;-77
2022/12/19 00:22:14;;;;;;;;;;;;;;;;;;5036246;28;7272;-78
2022/12/19 00:24:47;;;;;;;;;;;;;;;;;;5036847;28;6796;-77
2022/12/19 00:27:39;;;;;;;;;;;;;;;;;;5036233;28;7165;-78
2022/12/19 00:30:05;;;;;;;;;;;;;;;;;;4997442;28;7169;-78
2022/12/19 00:32:31;;;;;;;;;;;;;;;;;;4996725;28;7023;-78
2022/12/19 00:34:56;;;;;;;;;;;;;;;;;;4996724;28;7238;-78
2022/12/19 00:37:45;;;;;;;;;;;;;;;;;;4996558;28;7190;-78
2022/12/19 00:40:11;;;;;;;;;;;;;;;;;;4996523;28;7131;-78
2022/12/19 00:42:38;;;;;;;;;;;;;;;;;;4996452;28;7008;-77
2022/12/19 00:45:04;;;;;;;;;;;;;;;;;;4996520;28;6824;-78
2022/12/19 00:47:30;;;;;;;;;;;;;;;;;;4997023;28;7265;-78
2022/12/19 00:49:55;;;;;;;;;;;;;;;;;;4996399;28;7229;-78
2022/12/19 00:52:38;;;;;;;;;;;;;;;;;;4996184;28;7375;-78
2022/12/19 00:55:04;;;;;;;;;;;;;;;;;;4995337;28;7200;-78
2022/12/19 00:57:30;;;;;;;;;;;;;;;;;;4996115;28;7013;-78
2022/12/19 01:00:13;;;;;;;;;;;;;;;;;;4996081;28;7231;-78
2022/12/19 01:02:39;;;;;;;;;;;;;;;;;;4996387;28;7257;-78
2022/12/19 01:05:17;;;;;;;;;;;;;;;;;;4996150;28;6929;-78
2022/12/19 01:07:42;;;;;;;;;;;;;;;;;;4996161;28;7188;-83
2022/12/19 01:10:08;;;;;;;;;;;;;;;;;;4995968;28;7177;-80
2022/12/19 01:12:54;;;;;;;;;;;;;;;;;;4995984;28;6928;-79
2022/12/19 01:15:20;;;;;;;;;;;;;;;;;;4995479;28;7445;-80
2022/12/19 01:23:51;;;;;;;;;;;;;;;;;;4995696;28;6682;-80
2022/12/19 01:26:17;;;;;;;;;;;;;;;;;;4995878;28;7159;-80
2022/12/19 01:28:43;;;;;;;;;;;;;;;;;;5012369;28;7043;-80
2022/12/19 01:31:31;;;;;;;;;;;;;;;;;;5035033;28;6924;-80
2022/12/19 01:33:58;;;;;;;;;;;;;;;;;;5034922;28;7244;-81
2022/12/19 01:36:23;;;;;;;;;;;;;;;;;;5035896;28;7318;-80
2022/12/19 01:38:54;;;;;;;;;;;;;;;;;;5034827;28;7178;-80
2022/12/19 01:41:19;;;;;;;;;;;;;;;;;;5034851;28;7029;-81
2022/12/19 01:44:03;;;;;;;;;;;;;;;;;;5034862;28;7194;-80
2022/12/19 01:46:32;;;;;;;;;;;;;;;;;;5034130;28;9463;-80
2022/12/19 01:52:08;;;;;;;;;;;;;;;;;;5028561;28;6912;-80
2022/12/19 01:55:09;;;;;;;;;;;;;;;;;;5014771;28;7158;-81
2022/12/19 01:57:38;;;;;;;;;;;;;;;;;;4997761;28;7209;-80
2022/12/19 02:00:04;;;;;;;;;;;;;;;;;;5015070;28;7143;-81
2022/12/19 02:02:49;;;;;;;;;;;;;;;;;;5014947;28;7418;-82
2022/12/19 02:05:15;;;;;;;;;;;;;;;;;;5014572;28;7365;-81
2022/12/19 02:07:42;;;;;;;;;;;;;;;;;;5014709;28;7114;-82
2022/12/19 02:10:16;;;;;;;;;;;;;;;;;;5014789;28;7229;-82
2022/12/19 02:12:44;;;;;;;;;;;;;;;;;;5014806;28;7166;-81
2022/12/19 02:15:12;;;;;;;;;;;;;;;;;;5015366;28;7186;-80
2022/12/19 02:17:42;;;;;;;;;;;;;;;;;;5015358;28;7116;-80
2022/12/19 02:20:16;;;;;;;;;;;;;;;;;;5015084;28;6967;-81
2022/12/19 02:22:42;;;;;;;;;;;;;;;;;;5014773;28;7277;-82
2022/12/19 02:25:16;;;;;;;;;;;;;;;;;;5014662;28;7383;-82
2022/12/19 02:28:09;;;;;;;;;;;;;;;;;;5014717;28;7626;-82
2022/12/19 02:30:38;;;;;;;;;;;;;;;;;;4996970;28;8527;-80
2022/12/19 02:33:07;;;;;;;;;;;;;;;;;;5014853;28;7146;-82
2022/12/19 02:35:41;;;;;;;;;;;;;;;;;;5014860;28;7256;-82
2022/12/19 02:38:11;;;;;;;;;;;;;;;;;;5014574;28;7375;-82
2022/12/19 02:40:57;;;;;;;;;;;;;;;;;;5014353;28;7225;-82
2022/12/19 02:43:28;;;;;;;;;;;;;;;;;;4993542;28;7240;-82
2022/12/19 02:46:03;;;;;;;;;;;;;;;;;;5014506;28;7323;-82
2022/12/19 02:48:29;;;;;;;;;;;;;;;;;;4997047;28;8535;-82
2022/12/19 02:50:54;;;;;;;;;;;;;;;;;;5014161;28;6995;-82
2022/12/19 03:05:19;;;;;;;;;;;;;;;;;;5034169;28;6965;-81
2022/12/19 03:08:03;;;;;;;;;;;;;;;;;;5034125;28;7003;-80
2022/12/19 03:10:37;;;;;;;;;;;;;;;;;;5033714;28;7195;-81
2022/12/19 03:13:06;;;;;;;;;;;;;;;;;;5033709;28;7018;-81
2022/12/19 03:24:40;;;;;;;;;;;;;;;;;;4997755;28;6937;-81
2022/12/19 03:30:22;;;;;;;;;;;;;;;;;;4997648;28;7039;-81
2022/12/19 03:32:48;;;;;;;;;;;;;;;;;;4997679;28;8193;-80
2022/12/19 03:35:14;;;;;;;;;;;;;;;;;;4997724;28;7148;-81
2022/12/19 03:37:42;;;;;;;;;;;;;;;;;;4997555;28;6968;-80
2022/12/19 03:40:11;;;;;;;;;;;;;;;;;;4998100;28;6943;-81
2022/12/19 03:45:44;;;;;;;;;;;;;;;;;;4997926;28;7058;-81
2022/12/19 03:48:20;;;;;;;;;;;;;;;;;;4997575;28;7147;-81
2022/12/19 03:53:55;;;;;;;;;;;;;;;;;;5015980;28;6979;-80
2022/12/19 03:59:32;;;;;;;;;;;;;;;;;;5017089;28;7333;-80
2022/12/19 04:01:59;;;;;;;;;;;;;;;;;;5008402;28;8440;-81
2022/12/19 04:04:27;;;;;;;;;;;;;;;;;;4997328;28;7409;-80
2022/12/19 04:06:55;;;;;;;;;;;;;;;;;;5009714;28;6933;-80
2022/12/19 04:09:29;;;;;;;;;;;;;;;;;;5017863;28;7415;-80
2022/12/19 04:12:01;;;;;;;;;;;;;;;;;;5005084;28;7170;-81
2022/12/19 04:14:37;;;;;;;;;;;;;;;;;;4996823;28;7228;-80
2022/12/19 04:17:18;;;;;;;;;;;;;;;;;;4996941;28;7141;-80
2022/12/19 04:19:59;;;;;;;;;;;;;;;;;;4996826;28;7031;-80
2022/12/19 04:22:34;;;;;;;;;;;;;;;;;;4996972;28;7117;-80
2022/12/19 04:25:06;;;;;;;;;;;;;;;;;;4995540;28;8496;-80
2022/12/19 04:27:45;;;;;;;;;;;;;;;;;;4998480;28;7409;-80
2022/12/19 04:30:15;;;;;;;;;;;;;;;;;;5016039;28;7438;-81
2022/12/19 04:32:43;;;;;;;;;;;;;;;;;;5007256;28;7086;-80
2022/12/19 04:35:10;;;;;;;;;;;;;;;;;;5001477;28;7446;-79
2022/12/19 04:37:36;;;;;;;;;;;;;;;;;;5001661;28;7130;-79
2022/12/19 04:40:01;;;;;;;;;;;;;;;;;;5001694;28;6878;-79
2022/12/19 04:42:27;;;;;;;;;;;;;;;;;;5013696;28;7075;-79
2022/12/19 04:44:52;;;;;;;;;;;;;;;;;;5015977;28;7174;-79
2022/12/19 04:47:49;;;;;;;;;;;;;;;;;;5013216;28;7579;-78
2022/12/19 04:50:15;;;;;;;;;;;;;;;;;;5003621;28;7207;-78
2022/12/19 04:52:40;;;;;;;;;;;;;;;;;;5009976;28;7402;-79
2022/12/19 04:55:06;;;;;;;;;;;;;;;;;;5001029;28;7256;-78
2022/12/19 04:57:32;;;;;;;;;;;;;;;;;;5005752;28;6906;-78
2022/12/19 05:00:07;;;;;;;;;;;;;;;;;;5010194;28;7398;-78
2022/12/19 05:02:33;;;;;;;;;;;;;;;;;;5015540;28;6980;-77
2022/12/19 05:04:59;;;;;;;;;;;;;;;;;;5010240;28;7242;-77
2022/12/19 05:07:24;;;;;;;;;;;;;;;;;;5001023;28;6975;-77
2022/12/19 05:09:50;;;;;;;;;;;;;;;;;;5007924;28;7301;-78
2022/12/19 05:12:16;;;;;;;;;;;;;;;;;;5003406;28;6967;-78
2022/12/19 05:14:42;;;;;;;;;;;;;;;;;;4995966;28;7166;-78
2022/12/19 05:20:10;;;;;;;;;;;;;;;;;;5007184;28;6669;-78
2022/12/19 05:22:36;;;;;;;;;;;;;;;;;;5015332;28;7175;-79
2022/12/19 05:25:02;;;;;;;;;;;;;;;;;;5015442;28;6965;-79
2022/12/19 05:30:30;;;;;;;;;;;;;;;;;;5014976;28;6981;-79
2022/12/19 05:32:55;;;;;;;;;;;;;;;;;;5015560;28;7117;-79
2022/12/19 05:35:21;;;;;;;;;;;;;;;;;;5014922;28;7211;-79
2022/12/19 05:38:23;;;;;;;;;;;;;;;;;;5015228;28;7139;-79
2022/12/19 05:40:49;;;;;;;;;;;;;;;;;;5012703;28;6955;-79
2022/12/19 05:43:15;;;;;;;;;;;;;;;;;;5015174;28;7157;-78
2022/12/19 05:48:39;;;;;;;;;;;;;;;;;;5000538;28;7020;-78
2022/12/19 05:51:05;;;;;;;;;;;;;;;;;;5014303;28;8010;-80
2022/12/19 05:53:31;;;;;;;;;;;;;;;;;;5014662;28;6948;-79
2022/12/19 05:56:28;;;;;;;;;;;;;;;;;;5014207;28;7018;-80
2022/12/19 05:58:53;;;;;;;;;;;;;;;;;;5014676;28;7360;-78
2022/12/19 06:01:19;;;;;;;;;;;;;;;;;;5010302;28;7004;-78
2022/12/19 06:03:55;;;;;;;;;;;;;;;;;;5014883;28;7285;-79
2022/12/19 06:06:22;;;;;;;;;;;;;;;;;;5008574;28;7041;-78
2022/12/19 06:09:07;;;;;;;;;;;;;;;;;;5013615;28;7075;-79
2022/12/19 06:11:32;;;;;;;;;;;;;;;;;;5012939;28;6849;-79
2022/12/19 06:14:08;;;;;;;;;;;;;;;;;;5014478;28;7193;-79
2022/12/19 06:16:33;;;;;;;;;;;;;;;;;;5014136;28;6970;-79
2022/12/19 06:19:10;;;;;;;;;;;;;;;;;;5004477;28;7285;-79
2022/12/19 06:21:35;;;;;;;;;;;;;;;;;;4994847;28;7121;-79
2022/12/19 06:24:10;;;;;;;;;;;;;;;;;;4994306;28;7016;-79
2022/12/19 06:26:36;;;;;;;;;;;;;;;;;;4994901;28;6914;-79
2022/12/19 06:29:11;;;;;;;;;;;;;;;;;;5012574;28;7070;-78
2022/12/19 06:31:37;;;;;;;;;;;;;;;;;;5014113;28;6945;-79
2022/12/19 06:37:08;;;;;;;;;;;;;;;;;;5014190;28;6933;-76
2022/12/19 06:39:34;;;;;;;;;;;;;;;;;;5011030;28;7245;-76
2022/12/19 06:45:08;;;;;;;;;;;;;;;;;;4997468;28;6909;-76
2022/12/19 06:47:33;;;;;;;;;;;;;;;;;;5010358;28;7043;-75
2022/12/19 06:50:06;;;;;;;;;;;;;;;;;;5014502;28;7135;-75
2022/12/19 06:52:31;;;;;;;;;;;;;;;;;;5016299;28;6951;-76
2022/12/19 06:55:17;;;;;;;;;;;;;;;;;;5017789;28;6925;-76
2022/12/19 06:57:45;;;;;;;;;;;;;;;;;;5012358;28;8322;-76
2022/12/19 07:00:12;;;;;;;;;;;;;;;;;;5003657;28;7152;-76
2022/12/19 07:02:41;;;;;;;;;;;;;;;;;;5017548;28;7372;-75
2022/12/19 07:08:38;;;;;;;;;;;;;;;;;;5012320;28;6749;-75
2022/12/19 07:11:03;;;;;;;;;;;;;;;;;;5015645;28;7063;-75
2022/12/19 07:13:39;;;;;;;;;;;;;;;;;;4997713;28;7358;-75
2022/12/19 07:16:05;;;;;;;;;;;;;;;;;;4998005;28;7286;-75
2022/12/19 07:19:05;;;;;;;;;;;;;;;;;;4997960;28;7283;-75
2022/12/19 07:21:31;;;;;;;;;;;;;;;;;;4998478;28;7171;-75
2022/12/19 07:23:58;;;;;;;;;;;;;;;;;;4997519;28;7424;-75
2022/12/19 07:26:24;;;;;;;;;;;;;;;;;;4997890;28;7255;-75
2022/12/19 07:29:05;;;;;;;;;;;;;;;;;;4997802;28;6820;-75
2022/12/19 07:31:30;;;;;;;;;;;;;;;;;;4997701;28;7357;-75
2022/12/19 07:33:56;;;;;;;;;;;;;;;;;;5002003;28;7108;-75
2022/12/19 07:36:24;;;;;;;;;;;;;;;;;;5017324;28;6984;-76
2022/12/19 07:38:49;;;;;;;;;;;;;;;;;;5017318;28;7106;-75
2022/12/19 07:41:17;;;;;;;;;;;;;;;;;;5016846;28;6845;-75
2022/12/19 07:43:44;;;;;;;;;;;;;;;;;;5017392;28;7123;-75
2022/12/19 07:46:36;;;;;;;;;;;;;;;;;;5011898;28;7201;-75
2022/12/19 07:49:02;;;;;;;;;;;;;;;;;;5016457;28;7313;-75
2022/12/19 07:51:28;;;;;;;;;;;;;;;;;;4997458;28;6825;-75
2022/12/19 07:53:53;;;;;;;;;;;;;;;;;;4997363;28;7150;-76
2022/12/19 07:59:27;;;;;;;;;;;;;;;;;;5016674;28;6698;-75
2022/12/19 08:02:18;;;;;;;;;;;;;;;;;;5006172;28;7118;-75
2022/12/19 08:04:44;;;;;;;;;;;;;;;;;;4977631;28;7404;-75
2022/12/19 08:07:09;;;;;;;;;;;;;;;;;;4977084;28;6969;-75
2022/12/19 08:09:35;;;;;;;;;;;;;;;;;;4977552;28;7038;-75
2022/12/19 08:12:00;;;;;;;;;;;;;;;;;;4977583;28;7132;-75
2022/12/19 08:20:32;;;;;;;;;;;;;;;;;;4977224;28;6929;-75
2022/12/19 08:22:57;;;;;;;;;;;;;;;;;;4977432;28;7184;-75
2022/12/19 08:25:23;;;;;;;;;;;;;;;;;;4977184;28;7367;-75
2022/12/19 08:27:48;;;;;;;;;;;;;;;;;;4977319;28;7389;-76
2022/12/19 08:30:14;;;;;;;;;;;;;;;;;;4975929;28;7147;-75
2022/12/19 08:35:43;;;;;;;;;;;;;;;;;;4976849;28;6691;-74
2022/12/19 08:38:08;;;;;;;;;;;;;;;;;;4976891;28;7108;-74
2022/12/19 08:40:35;;;;;;;;;;;;;;;;;;4976994;28;6977;-73
2022/12/19 08:43:14;;;;;;;;;;;;;;;;;;4976819;28;7058;-78
2022/12/19 08:45:39;;;;;;;;;;;;;;;;;;4976968;28;7163;-74
2022/12/19 08:48:05;;;;;;;;;;;;;;;;;;4977056;28;6906;-78
2022/12/19 08:50:32;;;;;;;;;;;;;;;;;;4972658;28;6993;-75
2022/12/19 08:53:34;;;;;;;;;;;;;;;;;;4976840;28;7231;-75
2022/12/19 08:56:01;;;;;;;;;;;;;;;;;;4976779;28;7114;-75
2022/12/19 09:01:51;;;;;;;;;;;;;;;;;;4976345;28;6950;-71
2022/12/19 09:04:17;;;;;;;;;;;;;;;;;;4976708;28;7857;-74
2022/12/19 09:06:45;;;;;;;;;;;;;;;;;;4977438;28;7048;-75
2022/12/19 09:09:10;;;;;;;;;;;;;;;;;;4973390;28;7102;-72
2022/12/19 09:14:39;;;;;;;;;;;;;;;;;;4972653;28;6894;-82
2022/12/19 09:17:05;;;;;;;;;;;;;;;;;;4976460;28;7184;-74
2022/12/19 09:19:31;;;;;;;;;;;;;;;;;;4976205;28;7068;-75
2022/12/19 09:21:57;;;;;;;;;;;;;;;;;;4976185;28;7193;-73
2022/12/19 09:24:22;;;;;;;;;;;;;;;;;;4976227;28;7224;-73
2022/12/19 09:26:48;;;;;;;;;;;;;;;;;;4976444;28;7153;-70
2022/12/19 09:29:34;;;;;;;;;;;;;;;;;;4958831;28;8832;-71
2022/12/19 09:31:59;;;;;;;;;;;;;;;;;;4976033;28;7186;-73
2022/12/19 09:34:27;;;;;;;;;;;;;;;;;;4976044;28;7204;-74
2022/12/19 09:39:57;;;;;;;;;;;;;;;;;;4975809;28;6675;-75
2022/12/19 09:42:26;;;;;;;;;;;;;;;;;;4975739;28;7375;-66
2022/12/19 09:44:54;;;;;;;;;;;;;;;;;;4978140;28;7321;-69
2022/12/19 09:47:32;;;;;;;;;;;;;;;;;;4994689;28;7124;-73
2022/12/19 09:50:00;;;;;;;;;;;;;;;;;;4995254;28;7417;-75
2022/12/19 09:52:36;;;;;;;;;;;;;;;;;;4995285;28;7364;-78
2022/12/19 09:55:15;;;;;;;;;;;;;;;;;;4994858;28;7827;-79
2022/12/19 09:58:00;;;;;;;;;;;;;;;;;;4995144;28;7097;-72
2022/12/19 10:00:32;;;;;;;;;;;;;;;;;;4995142;28;7041;-73
2022/12/19 10:06:00;;;;;;;;;;;;;;;;;;5002128;28;7752;-77
2022/12/19 10:08:36;;;;;;;;;;;;;;;;;;5014399;28;7218;-77
2022/12/19 10:11:28;;;;;;;;;;;;;;;;;;5013983;28;7375;-77
2022/12/19 10:14:07;;;;;;;;;;;;;;;;;;5008518;28;7641;-77
2022/12/19 10:17:05;;;;;;;;;;;;;;;;;;5014778;28;7448;-77
2022/12/19 10:19:37;;;;;;;;;;;;;;;;;;5014611;28;7090;-75
2022/12/19 10:22:26;;;;;;;;;;;;;;;;;;5008462;28;7267;-76
2022/12/19 10:24:51;;;;;;;;;;;;;;;;;;4995181;28;7196;-76
2022/12/19 10:27:32;;;;;;;;;;;;;;;;;;4997847;28;7144;-76
2022/12/19 10:30:10;;;;;;;;;;;;;;;;;;4998559;28;7127;-76
2022/12/19 10:32:45;;;;;;;;;;;;;;;;;;4998653;28;7124;-76
2022/12/19 10:35:14;;;;;;;;;;;;;;;;;;4998481;28;7251;-76
2022/12/19 10:37:46;;;;;;;;;;;;;;;;;;4998168;28;7148;-76
2022/12/19 10:40:23;;;;;;;;;;;;;;;;;;5012911;28;7355;-75
2022/12/19 10:42:48;;;;;;;;;;;;;;;;;;5007038;28;7045;-77
2022/12/19 10:45:21;;;;;;;;;;;;;;;;;;5014703;28;6930;-83
2022/12/19 10:47:49;;;;;;;;;;;;;;;;;;4998947;28;7294;-76
2022/12/19 10:53:29;;;;;;;;;;;;;;;;;;4997976;28;6714;-76
2022/12/19 10:55:59;;;;;;;;;;;;;;;;;;4998407;28;6996;-76
2022/12/19 10:58:36;;;;;;;;;;;;;;;;;;4998566;28;7121;-76
2022/12/19 11:01:05;;;;;;;;;;;;;;;;;;4998314;28;7054;-76
2022/12/19 11:03:32;;;;;;;;;;;;;;;;;;4969308;28;7353;-76
2022/12/19 11:09:20;;;;;;;;;;;;;;;;;;4959041;28;6703;-76
2022/12/19 11:11:47;;;;;;;;;;;;;;;;;;4959368;28;7455;-76
2022/12/19 11:14:33;;;;;;;;;;;;;;;;;;4959046;28;7201;-76
2022/12/19 11:16:58;;;;;;;;;;;;;;;;;;4941903;28;8648;-72
2022/12/19 11:19:38;;;;;;;;;;;;;;;;;;4959148;28;7194;-72
2022/12/19 11:22:15;;;;;;;;;;;;;;;;;;4974019;28;7089;-72
2022/12/19 11:24:45;;;;;;;;;;;;;;;;;;4977726;28;6974;-72
2022/12/19 11:27:31;;;;;;;;;;;;;;;;;;4978120;28;6970;-76
2022/12/19 11:29:58;;;;;;;;;;;;;;;;;;4970400;28;6977;-76
2022/12/19 11:32:30;;;;;;;;;;;;;;;;;;4977932;28;7190;-76
2022/12/19 11:37:55;;;;;;;;;;;;;;;;;;4977192;28;7003;-76
2022/12/19 11:44:02;;;;;;;;;;;;;;;;;;4977369;28;6727;-76
2022/12/19 11:46:53;;;;;;;;;;;;;;;;;;4939430;28;7259;-77
2022/12/19 11:49:47;;;;;;;;;;;;;;;;;;4937285;29;6940;-77
2022/12/19 11:58:24;;;;;;;;;;;;;;;;;;4937819;29;7169;-77
2022/12/19 12:01:08;;;;;;;;;;;;;;;;;;4945982;28;7703;-77
2022/12/19 12:06:45;;;;;;;;;;;;;;;;;;4965774;28;6850;-77
2022/12/19 12:09:17;;;;;;;;;;;;;;;;;;4937048;29;7040;-76
2022/12/19 12:12:00;;;;;;;;;;;;;;;;;;4944455;28;7194;-76
2022/12/19 12:14:26;;;;;;;;;;;;;;;;;;4975492;28;7200;-76
2022/12/19 12:17:07;;;;;;;;;;;;;;;;;;4982704;28;7223;-76
2022/12/19 12:20:00;;;;;;;;;;;;;;;;;;4997014;28;7153;-76
2022/12/19 12:22:45;;;;;;;;;;;;;;;;;;4996682;28;6909;-76
2022/12/19 12:25:14;;;;;;;;;;;;;;;;;;4996874;28;7083;-76
2022/12/19 12:27:53;;;;;;;;;;;;;;;;;;4977557;28;7240;-76
2022/12/19 12:30:20;;;;;;;;;;;;;;;;;;4977159;28;7355;-76
2022/12/19 12:32:56;;;;;;;;;;;;;;;;;;4968971;28;7416;-76
2022/12/19 12:35:21;;;;;;;;;;;;;;;;;;4967301;28;6975;-76
2022/12/19 12:37:47;;;;;;;;;;;;;;;;;;4964482;28;7373;-76
2022/12/19 12:40:25;;;;;;;;;;;;;;;;;;4983835;28;7189;-76
2022/12/19 12:43:09;;;;;;;;;;;;;;;;;;4973209;28;7364;-77
2022/12/19 12:45:38;;;;;;;;;;;;;;;;;;4971692;28;7260;-77
2022/12/19 12:48:16;;;;;;;;;;;;;;;;;;4993156;28;7141;-77
2022/12/19 12:50:46;;;;;;;;;;;;;;;;;;4996375;28;7176;-77
2022/12/19 12:53:15;;;;;;;;;;;;;;;;;;4996199;28;7483;-77
2022/12/19 12:55:42;;;;;;;;;;;;;;;;;;4996082;28;7416;-77
2022/12/19 12:58:26;;;;;;;;;;;;;;;;;;4995857;28;7273;-72
2022/12/19 13:01:15;;;;;;;;;;;;;;;;;;4995931;28;7251;-72
2022/12/19 13:03:42;;;;;;;;;;;;;;;;;;4969168;28;8445;-76
2022/12/19 13:06:26;;;;;;;;;;;;;;;;;;4962499;28;7258;-76
2022/12/19 13:09:03;;;;;;;;;;;;;;;;;;4957330;28;6951;-76
2022/12/19 13:14:31;;;;;;;;;;;;;;;;;;4957016;28;6759;-77
2022/12/19 13:16:57;;;;;;;;;;;;;;;;;;4966687;28;7525;-77
2022/12/19 13:19:27;;;;;;;;;;;;;;;;;;4976316;28;7115;-76
2022/12/19 13:22:07;;;;;;;;;;;;;;;;;;4976338;28;7195;-76
2022/12/19 13:24:42;;;;;;;;;;;;;;;;;;4976294;28;7182;-76
2022/12/19 13:27:20;;;;;;;;;;;;;;;;;;4975220;28;7371;-76
2022/12/19 13:29:57;;;;;;;;;;;;;;;;;;4975764;28;7935;-72
2022/12/19 13:32:23;;;;;;;;;;;;;;;;;;4974014;28;7166;-73
2022/12/19 13:34:54;;;;;;;;;;;;;;;;;;4976035;28;7318;-73
2022/12/19 13:37:25;;;;;;;;;;;;;;;;;;4965901;28;7012;-76
2022/12/19 13:39:51;;;;;;;;;;;;;;;;;;4975977;28;7358;-72
2022/12/19 13:45:13;;;;;;;;;;;;;;;;;;4975938;28;7021;-77
2022/12/19 13:47:42;;;;;;;;;;;;;;;;;;4956692;28;6958;-76
2022/12/19 13:50:26;;;;;;;;;;;;;;;;;;4956438;28;7061;-77
2022/12/19 13:52:52;;;;;;;;;;;;;;;;;;4967672;28;7066;-76
2022/12/19 13:55:18;;;;;;;;;;;;;;;;;;4976514;28;7056;-73
2022/12/19 13:57:51;;;;;;;;;;;;;;;;;;4975882;28;7115;-72
2022/12/19 14:00:18;;;;;;;;;;;;;;;;;;4972618;28;7164;-76
2022/12/19 14:02:48;;;;;;;;;;;;;;;;;;5101108;23;7159;-73
2022/12/19 14:05:22;;;;;;;;;;;;;;;;;;5091985;23;7056;-76
2022/12/19 14:07:49;;;;;;;;;;;;;;;;;;5156628;22;7033;-76
2022/12/19 14:10:35;;;;;;;;;;;;;;;;;;5156678;22;7137;-76
2022/12/19 14:15:43;;;;;;;;;;;;;;;;;;5211407;22;6866;-73
2022/12/19 14:18:14;;;;;;;;;;;;;;;;;;5185850;22;8992;-77
2022/12/19 14:20:40;;;;;;;;;;;;;;;;;;5115679;22;7637;-73
2022/12/19 14:25:42;;;;;;;;;;;;;;;;;;5108393;22;7514;-76
2022/12/19 14:28:14;;;;;;;;;;;;;;;;;;5132243;22;7251;-74
2022/12/19 14:30:43;;;;;;;;;;;;;;;;;;5057291;28;7129;-77
2022/12/19 14:33:34;;;;;;;;;;;;;;;;;;5046063;28;7231;-77
2022/12/19 14:36:01;;;;;;;;;;;;;;;;;;5079786;22;6981;-76
2022/12/19 14:38:32;;;;;;;;;;;;;;;;;;4977811;28;7069;-77
2022/12/19 14:40:58;;;;;;;;;;;;;;;;;;5030193;23;6976;-73
2022/12/19 14:49:23;;;;;;;;;;;;;;;;;;5080236;23;6982;-77
2022/12/19 14:54:15;;;;;;;;;;;;;;;;;;5084463;23;6707;-69
2022/12/19 14:56:46;;;;;;;;;;;;;;;;;;5094841;23;7191;-77
2022/12/19 14:59:27;;;;;;;;;;;;;;;;;;5064795;23;7174;-77
2022/12/19 15:04:40;;;;;;;;;;;;;;;;;;5203722;22;7190;-73
2022/12/19 15:17:43;;;;;;;;;;;;;;;;;;5218978;22;6788;-75
2022/12/19 15:20:09;;;;;;;;;;;;;;;;;;5159580;22;7284;-75
2022/12/19 15:22:35;;;;;;;;;;;;;;;;;;5198157;22;8427;-76
2022/12/19 15:25:00;;;;;;;;;;;;;;;;;;5146630;22;7462;-76
2022/12/19 15:27:26;;;;;;;;;;;;;;;;;;5031768;28;8539;-77
2022/12/19 15:29:51;;;;;;;;;;;;;;;;;;5023757;28;7308;-77
2022/12/19 15:32:17;;;;;;;;;;;;;;;;;;5027689;28;7290;-77
2022/12/19 15:34:43;;;;;;;;;;;;;;;;;;5025805;28;7219;-72
2022/12/19 15:37:10;;;;;;;;;;;;;;;;;;5034054;28;8201;-72
2022/12/19 15:39:36;;;;;;;;;;;;;;;;;;5037321;28;7284;-72
2022/12/19 15:42:02;;;;;;;;;;;;;;;;;;5036021;28;6988;-72
2022/12/19 15:44:27;;;;;;;;;;;;;;;;;;5034836;28;7079;-72
2022/12/19 15:46:54;;;;;;;;;;;;;;;;;;5010098;28;8478;-72
2022/12/19 15:49:20;;;;;;;;;;;;;;;;;;5015643;28;7886;-77
2022/12/19 15:51:47;;;;;;;;;;;;;;;;;;5015694;28;7153;-77
2022/12/19 15:54:12;;;;;;;;;;;;;;;;;;5015964;28;7044;-77
2022/12/19 15:56:41;;;;;;;;;;;;;;;;;;5026989;28;7066;-77
2022/12/19 15:59:21;;;;;;;;;;;;;;;;;;5035577;28;7455;-77
2022/12/19 16:01:46;;;;;;;;;;;;;;;;;;5035693;28;7108;-81
2022/12/19 16:04:12;;;;;;;;;;;;;;;;;;5036297;28;7064;-79
2022/12/19 16:06:38;;;;;;;;;;;;;;;;;;5036642;28;7503;-72
2022/12/19 16:09:19;;;;;;;;;;;;;;;;;;5036491;28;6997;-77
2022/12/19 16:11:46;;;;;;;;;;;;;;;;;;5029227;28;7029;-78
2022/12/19 16:14:12;;;;;;;;;;;;;;;;;;5021343;28;8254;-78
2022/12/19 16:16:38;;;;;;;;;;;;;;;;;;5032839;28;7290;-78
2022/12/19 16:19:24;;;;;;;;;;;;;;;;;;5027962;28;7154;-78
2022/12/19 16:21:50;;;;;;;;;;;;;;;;;;5027657;28;7304;-78
2022/12/19 16:24:16;;;;;;;;;;;;;;;;;;5027163;28;7178;-78
2022/12/19 16:26:42;;;;;;;;;;;;;;;;;;5036127;28;7076;-77
2022/12/19 16:29:18;;;;;;;;;;;;;;;;;;5036283;28;7273;-78
2022/12/19 17:05:48;;;;;;;;;;;;;;;;;;5051876;28;6651;-70
2022/12/19 17:08:14;;;;;;;;;;;;;;;;;;5031841;28;7377;-70
2022/12/19 17:10:43;;;;;;;;;;;;;;;;;;5027589;28;7186;-71
2022/12/19 17:13:12;;;;;;;;;;;;;;;;;;5016742;28;7330;-71
2022/12/19 17:15:37;;;;;;;;;;;;;;;;;;5011268;28;7055;-71
2022/12/19 17:18:09;;;;;;;;;;;;;;;;;;5029450;28;6833;-71
2022/12/19 17:20:38;;;;;;;;;;;;;;;;;;5014226;28;6852;-71
2022/12/19 17:23:15;;;;;;;;;;;;;;;;;;5031491;28;7110;-71
2022/12/19 17:25:40;;;;;;;;;;;;;;;;;;5020231;28;7069;-71
2022/12/19 17:28:06;;;;;;;;;;;;;;;;;;5011465;28;7134;-71
2022/12/19 17:30:33;;;;;;;;;;;;;;;;;;5013079;28;7105;-71
2022/12/19 17:32:58;;;;;;;;;;;;;;;;;;5014316;28;6925;-71
2022/12/19 17:35:28;;;;;;;;;;;;;;;;;;5027203;28;8929;-71
2022/12/19 17:37:55;;;;;;;;;;;;;;;;;;5027202;28;7159;-71
2022/12/19 17:40:22;;;;;;;;;;;;;;;;;;5019540;28;7026;-71
2022/12/19 17:42:49;;;;;;;;;;;;;;;;;;5024779;28;7028;-71
2022/12/19 17:45:15;;;;;;;;;;;;;;;;;;5022162;28;7339;-71
2022/12/19 17:47:43;;;;;;;;;;;;;;;;;;5096925;23;7259;-78
2022/12/19 17:50:18;;;;;;;;;;;;;;;;;;5131769;23;7465;-72
2022/12/19 17:52:43;;;;;;;;;;;;;;;;;;5134832;23;7344;-72
2022/12/19 17:55:17;;;;;;;;;;;;;;;;;;5036211;28;8475;-72
2022/12/19 17:57:43;;;;;;;;;;;;;;;;;;5089880;23;7127;-73
2022/12/19 18:00:09;;;;;;;;;;;;;;;;;;5081926;23;7068;-78
2022/12/19 18:02:35;;;;;;;;;;;;;;;;;;5233232;23;6912;-78
2022/12/19 18:05:00;;;;;;;;;;;;;;;;;;5115538;23;8869;-77
2022/12/19 18:07:26;;;;;;;;;;;;;;;;;;5150641;23;7399;-77
2022/12/19 18:09:51;;;;;;;;;;;;;;;;;;5197572;23;8699;-73
2022/12/19 18:12:17;;;;;;;;;;;;;;;;;;5126198;23;7003;-77
2022/12/19 18:14:45;;;;;;;;;;;;;;;;;;5143016;23;8400;-77
2022/12/19 18:17:12;;;;;;;;;;;;;;;;;;5153117;23;7273;-77
2022/12/19 18:19:38;;;;;;;;;;;;;;;;;;5115047;23;6999;-74
2022/12/19 18:22:05;;;;;;;;;;;;;;;;;;5155672;23;7207;-78
2022/12/19 18:24:30;;;;;;;;;;;;;;;;;;5115527;23;7256;-73
2022/12/19 18:26:56;;;;;;;;;;;;;;;;;;5018521;28;8383;-73
2022/12/19 18:29:22;;;;;;;;;;;;;;;;;;5093496;23;8888;-74
2022/12/19 18:31:48;;;;;;;;;;;;;;;;;;5138901;23;9138;-73
2022/12/19 18:34:20;;;;;;;;;;;;;;;;;;5167378;23;7364;-78
2022/12/19 18:36:46;;;;;;;;;;;;;;;;;;5062802;23;8515;-78
2022/12/19 18:39:30;;;;;;;;;;;;;;;;;;4994566;28;8406;-78
2022/12/19 18:41:56;;;;;;;;;;;;;;;;;;5009646;28;6986;-78
2022/12/19 18:44:22;;;;;;;;;;;;;;;;;;5023492;28;8350;-78
2022/12/19 18:46:49;;;;;;;;;;;;;;;;;;5002560;28;7197;-77
2022/12/19 18:49:16;;;;;;;;;;;;;;;;;;5015870;28;6973;-78
2022/12/19 18:54:17;;;;;;;;;;;;;;;;;;5149238;23;6990;-73
2022/12/19 18:56:42;;;;;;;;;;;;;;;;;;5181078;23;8952;-75
2022/12/19 18:59:08;;;;;;;;;;;;;;;;;;5192782;23;7367;-74
2022/12/19 19:01:38;;;;;;;;;;;;;;;;;;5154737;23;7222;-77
2022/12/19 19:04:04;;;;;;;;;;;;;;;;;;5138498;23;8497;-73
2022/12/19 19:06:32;;;;;;;;;;;;;;;;;;5192181;23;7624;-74
2022/12/19 19:08:58;;;;;;;;;;;;;;;;;;5112738;23;7408;-73
2022/12/19 19:11:24;;;;;;;;;;;;;;;;;;5018834;28;8380;-73
2022/12/19 19:13:51;;;;;;;;;;;;;;;;;;5212360;23;7001;-76
2022/12/19 19:16:21;;;;;;;;;;;;;;;;;;5131504;23;7254;-77
2022/12/19 19:21:29;;;;;;;;;;;;;;;;;;5118505;23;6932;-76
2022/12/19 19:23:58;;;;;;;;;;;;;;;;;;5116312;23;7495;-75
2022/12/19 19:26:23;;;;;;;;;;;;;;;;;;5156756;23;8412;-73
2022/12/19 19:28:49;;;;;;;;;;;;;;;;;;5185736;23;8923;-73
2022/12/19 19:31:16;;;;;;;;;;;;;;;;;;5165820;23;7197;-77
2022/12/19 19:33:45;;;;;;;;;;;;;;;;;;5084556;23;8531;-77
2022/12/19 19:36:16;;;;;;;;;;;;;;;;;;5079781;23;9249;-72
2022/12/19 19:38:44;;;;;;;;;;;;;;;;;;5150436;23;8574;-77
2022/12/19 19:41:11;;;;;;;;;;;;;;;;;;5093289;23;8739;-76
2022/12/19 19:48:31;;;;;;;;;;;;;;;;;;5202682;23;6795;-77
2022/12/19 19:55:58;;;;;;;;;;;;;;;;;;5126907;23;6928;-73
2022/12/19 19:58:24;;;;;;;;;;;;;;;;;;5093596;23;7701;-72
2022/12/19 20:00:50;;;;;;;;;;;;;;;;;;5039514;28;8711;-72
2022/12/19 20:03:15;;;;;;;;;;;;;;;;;;5035446;28;7047;-78
2022/12/19 20:05:41;;;;;;;;;;;;;;;;;;5150790;23;7249;-77
2022/12/19 20:08:06;;;;;;;;;;;;;;;;;;5143091;23;7585;-74
2022/12/19 20:10:32;;;;;;;;;;;;;;;;;;5142895;23;7330;-75
2022/12/19 20:12:57;;;;;;;;;;;;;;;;;;5200957;22;7708;-78
2022/12/19 20:17:50;;;;;;;;;;;;;;;;;;5146306;23;7284;-73
2022/12/19 20:20:16;;;;;;;;;;;;;;;;;;5020928;28;6985;-78
2022/12/19 20:22:42;;;;;;;;;;;;;;;;;;5109984;23;7258;-77
2022/12/19 20:25:07;;;;;;;;;;;;;;;;;;5108769;23;6863;-75
2022/12/19 20:27:33;;;;;;;;;;;;;;;;;;5054818;23;8080;-72
2022/12/19 20:29:59;;;;;;;;;;;;;;;;;;5034150;28;6965;-72
2022/12/19 20:32:25;;;;;;;;;;;;;;;;;;5083643;23;7115;-78
2022/12/19 20:34:51;;;;;;;;;;;;;;;;;;5121016;23;7816;-74
2022/12/19 20:37:16;;;;;;;;;;;;;;;;;;5191485;23;7361;-76
2022/12/19 20:39:42;;;;;;;;;;;;;;;;;;5112836;23;7572;-76
2022/12/19 20:42:08;;;;;;;;;;;;;;;;;;5158523;23;8522;-79